Time;durP1;ratioP1;P1;durP2;ratioP2;P2;SDS_P1;SDS_P2;PMS_P1;PMS_P2;Temp;Humidity;BMP_temperature;BMP_pressure;BME280_temperature;BME280_humidity;BME280_pressure;Samples;Min_cycle;Max_cycle;Signal;HPM_P1;HPM_P2
2023/12/08 00:00:15;;;;;;;0.80;0.80;;;-4.80;99.90;;;;;;5092829;28;20236;-68
2023/12/08 00:03:21;;;;;;;0.60;0.60;;;-5.00;99.90;;;;;;5092399;28;20250;-71
2023/12/08 00:05:57;;;;;;;0.70;0.70;;;-5.10;99.90;;;;;;5091751;28;20610;-73
2023/12/08 00:08:23;;;;;;;0.87;0.87;;;-5.10;99.90;;;;;;5070308;28;20210;-71
2023/12/08 00:10:49;;;;;;;0.80;0.80;;;-5.30;99.90;;;;;;5090745;28;20192;-69
2023/12/08 00:13:30;;;;;;;0.85;0.85;;;-5.30;99.90;;;;;;5090915;28;20211;-72
2023/12/08 00:15:56;;;;;;;0.83;0.83;;;-5.40;99.90;;;;;;5091443;28;20679;-72
2023/12/08 00:18:21;;;;;;;0.90;0.90;;;-5.40;99.90;;;;;;5091409;28;20227;-72
2023/12/08 00:21:02;;;;;;;0.90;0.90;;;-5.50;99.90;;;;;;5089753;28;20271;-75
2023/12/08 00:23:37;;;;;;;0.80;0.80;;;-5.50;99.90;;;;;;5085706;28;20676;-74
2023/12/08 00:26:36;;;;;;;4.93;2.90;;;-5.40;99.90;;;;;;5111031;28;20426;-72
2023/12/08 00:29:37;;;;;;;0.80;0.80;;;-5.50;99.90;;;;;;5093152;28;20315;-73
2023/12/08 00:32:12;;;;;;;0.90;0.90;;;-5.50;99.90;;;;;;5093469;28;20214;-73
2023/12/08 00:34:38;;;;;;;0.87;0.87;;;-5.60;99.90;;;;;;5108951;28;20198;-73
2023/12/08 00:37:41;;;;;;;1.27;1.17;;;-5.60;99.90;;;;;;5096759;28;20387;-71
2023/12/08 00:40:11;;;;;;;0.90;0.90;;;-5.70;99.90;;;;;;5072767;28;20204;-72
2023/12/08 00:42:51;;;;;;;0.80;0.80;;;-5.70;99.90;;;;;;5074217;28;20598;-73
2023/12/08 00:45:17;;;;;;;0.80;0.80;;;-5.70;99.90;;;;;;5077247;28;20200;-72
2023/12/08 00:51:12;;;;;;;0.90;0.90;;;-5.80;99.90;;;;;;5074253;28;20301;-73
2023/12/08 00:53:40;;;;;;;0.90;0.90;;;-5.80;99.90;;;;;;5072019;28;20236;-71
2023/12/08 00:56:40;;;;;;;0.90;0.90;;;-5.90;99.90;;;;;;5074918;28;20219;-72
2023/12/08 00:59:06;;;;;;;0.80;0.80;;;-5.90;99.90;;;;;;5084742;28;20684;-72
2023/12/08 01:01:32;;;;;;;0.90;0.90;;;-5.90;99.90;;;;;;5071881;28;20200;-70
2023/12/08 01:03:58;;;;;;;0.90;0.90;;;-5.90;99.90;;;;;;5072184;28;20189;-70
2023/12/08 01:06:24;;;;;;;0.80;0.80;;;-5.90;99.90;;;;;;5071953;28;20735;-72
2023/12/08 01:08:59;;;;;;;0.80;0.80;;;-5.90;99.90;;;;;;5072481;28;20212;-73
2023/12/08 01:11:24;;;;;;;1.07;1.07;;;-5.90;99.90;;;;;;5056270;28;20200;-72
2023/12/08 01:14:03;;;;;;;0.87;0.87;;;-5.90;99.90;;;;;;5056148;28;20227;-72
2023/12/08 01:16:29;;;;;;;0.80;0.80;;;-6.00;99.90;;;;;;5071602;28;20208;-72
2023/12/08 01:18:55;;;;;;;0.80;0.80;;;-6.00;99.90;;;;;;5082951;28;20204;-72
2023/12/08 01:21:21;;;;;;;0.83;0.83;;;-6.00;99.90;;;;;;5094241;28;20213;-72
2023/12/08 01:23:46;;;;;;;0.80;0.80;;;-6.00;99.90;;;;;;5112502;28;20632;-72
2023/12/08 01:26:12;;;;;;;0.90;0.90;;;-6.10;99.90;;;;;;5112421;28;20211;-72
2023/12/08 01:28:37;;;;;;;0.80;0.80;;;-6.10;99.90;;;;;;5112065;28;20191;-72
2023/12/08 01:31:03;;;;;;;0.90;0.90;;;-6.20;99.90;;;;;;5112126;28;20199;-71
2023/12/08 01:33:29;;;;;;;0.80;0.80;;;-6.20;99.90;;;;;;5090161;28;20688;-73
2023/12/08 01:35:55;;;;;;;0.80;0.80;;;-6.20;99.90;;;;;;5091804;28;20215;-72
2023/12/08 01:38:20;;;;;;;1.47;1.37;;;-6.20;99.90;;;;;;5073076;28;20249;-72
2023/12/08 01:40:46;;;;;;;0.87;0.87;;;-6.30;99.90;;;;;;5091595;28;20196;-72
2023/12/08 01:43:12;;;;;;;0.88;0.88;;;-6.20;99.90;;;;;;5091707;28;20200;-73
2023/12/08 01:45:39;;;;;;;0.90;0.90;;;-6.20;99.90;;;;;;5091477;28;20294;-71
2023/12/08 01:48:05;;;;;;;0.90;0.90;;;-6.20;99.90;;;;;;5073350;28;20204;-72
2023/12/08 01:50:32;;;;;;;0.90;0.90;;;-6.30;99.90;;;;;;5090295;28;20247;-72
2023/12/08 01:52:59;;;;;;;0.90;0.90;;;-6.30;99.90;;;;;;5091661;28;20200;-68
2023/12/08 01:55:26;;;;;;;0.80;0.80;;;-6.30;99.90;;;;;;5091616;28;20303;-71
2023/12/08 01:57:52;;;;;;;0.80;0.80;;;-6.20;99.90;;;;;;5091527;28;20706;-68
2023/12/08 02:00:18;;;;;;;0.80;0.80;;;-6.20;99.90;;;;;;5111776;28;20261;-69
2023/12/08 02:02:44;;;;;;;0.87;0.87;;;-6.20;99.90;;;;;;5111298;28;20196;-67
2023/12/08 02:05:10;;;;;;;0.70;0.70;;;-6.20;99.90;;;;;;5111229;28;20736;-68
2023/12/08 02:07:36;;;;;;;0.80;0.80;;;-6.10;99.90;;;;;;5111062;28;20274;-70
2023/12/08 02:10:02;;;;;;;0.80;0.80;;;-6.00;99.90;;;;;;5111431;28;20204;-68
2023/12/08 02:12:28;;;;;;;0.80;0.80;;;-6.00;99.90;;;;;;5111437;28;20603;-68
2023/12/08 02:14:54;;;;;;;0.77;0.77;;;-6.00;99.90;;;;;;5111397;28;20200;-68
2023/12/08 02:17:35;;;;;;;0.80;0.80;;;-6.00;99.90;;;;;;5111208;28;20195;-70
2023/12/08 02:20:05;;;;;;;0.87;0.87;;;-6.00;99.90;;;;;;5110747;28;20187;-69
2023/12/08 02:22:30;;;;;;;0.80;0.80;;;-5.90;99.90;;;;;;5110766;28;20593;-68
2023/12/08 02:24:56;;;;;;;0.90;0.90;;;-6.00;99.90;;;;;;5092674;28;20314;-68
2023/12/08 02:27:22;;;;;;;0.80;0.80;;;-6.00;99.90;;;;;;5110986;28;20282;-68
2023/12/08 02:29:48;;;;;;;0.80;0.80;;;-6.00;99.90;;;;;;5116218;27;20252;-68
2023/12/08 02:32:35;;;;;;;0.90;0.90;;;-6.10;99.90;;;;;;5111203;28;20195;-69
2023/12/08 02:35:06;;;;;;;0.90;0.90;;;-6.20;99.90;;;;;;5111003;28;20837;-71
2023/12/08 02:37:36;;;;;;;0.90;0.90;;;-6.20;99.90;;;;;;5110792;28;20205;-68
2023/12/08 02:40:06;;;;;;;0.90;0.90;;;-6.20;99.90;;;;;;5111260;28;20198;-70
2023/12/08 02:42:33;;;;;;;1.10;1.10;;;-6.10;99.90;;;;;;5110920;28;20627;-70
2023/12/08 02:44:59;;;;;;;0.73;0.73;;;-6.10;99.90;;;;;;5111018;28;20247;-69
2023/12/08 02:47:25;;;;;;;0.90;0.90;;;-6.00;99.90;;;;;;5110714;28;20196;-68
2023/12/08 02:49:51;;;;;;;0.80;0.80;;;-6.00;99.90;;;;;;5111185;28;20202;-68
2023/12/08 02:52:17;;;;;;;0.80;0.80;;;-5.90;99.90;;;;;;5110878;28;20603;-69
2023/12/08 02:54:42;;;;;;;0.87;0.87;;;-5.80;99.90;;;;;;5110516;28;20528;-68
2023/12/08 02:57:08;;;;;;;0.80;0.80;;;-5.70;99.90;;;;;;5092843;28;20207;-68
2023/12/08 02:59:33;;;;;;;0.90;0.90;;;-5.60;99.90;;;;;;5110259;28;20198;-71
2023/12/08 03:01:59;;;;;;;0.73;0.73;;;-5.60;99.90;;;;;;5110472;28;20202;-73
2023/12/08 03:04:25;;;;;;;0.80;0.80;;;-5.70;99.90;;;;;;5092059;28;20229;-72
2023/12/08 03:06:50;;;;;;;0.73;0.73;;;-5.70;99.90;;;;;;5092024;28;20204;-72
2023/12/08 03:09:16;;;;;;;0.80;0.80;;;-5.70;99.90;;;;;;5110643;28;20199;-71
2023/12/08 03:11:42;;;;;;;0.90;0.90;;;-5.70;99.90;;;;;;5110346;28;20697;-72
2023/12/08 03:14:07;;;;;;;1.73;1.63;;;-5.70;99.90;;;;;;5110246;28;20195;-73
2023/12/08 03:16:33;;;;;;;0.70;0.70;;;-5.80;99.90;;;;;;5109948;28;20219;-72
2023/12/08 03:18:58;;;;;;;0.80;0.80;;;-5.80;99.90;;;;;;5110229;28;20282;-73
2023/12/08 03:21:25;;;;;;;0.87;0.87;;;-5.80;99.90;;;;;;5125752;27;20203;-72
2023/12/08 03:23:51;;;;;;;0.80;0.80;;;-5.80;99.90;;;;;;5091908;28;20667;-72
2023/12/08 03:26:18;;;;;;;0.80;0.80;;;-5.80;99.90;;;;;;5099684;28;20207;-73
2023/12/08 03:28:44;;;;;;;0.80;0.80;;;-5.70;99.90;;;;;;5091703;28;20290;-73
2023/12/08 03:31:39;;;;;;;1.53;1.43;;;-5.70;99.90;;;;;;5109981;28;20685;-72
2023/12/08 03:34:05;;;;;;;0.80;0.80;;;-5.60;99.90;;;;;;5078396;28;20694;-73
2023/12/08 03:36:31;;;;;;;0.90;0.90;;;-5.60;99.90;;;;;;5109637;28;20207;-73
2023/12/08 03:38:56;;;;;;;0.90;0.90;;;-5.50;99.90;;;;;;5091054;28;20264;-72
2023/12/08 03:41:22;;;;;;;0.80;0.80;;;-5.50;99.90;;;;;;5109440;28;20220;-72
2023/12/08 03:43:47;;;;;;;0.80;0.80;;;-5.40;99.90;;;;;;5109534;28;20191;-72
2023/12/08 03:46:13;;;;;;;0.90;0.90;;;-5.40;99.90;;;;;;5109595;28;20234;-72
2023/12/08 03:48:39;;;;;;;0.80;0.80;;;-5.40;99.90;;;;;;5109426;28;20285;-72
2023/12/08 03:51:05;;;;;;;0.90;0.90;;;-5.40;99.90;;;;;;5109674;28;20279;-72
2023/12/08 03:53:34;;;;;;;0.80;0.80;;;-5.40;99.90;;;;;;5109270;28;20284;-71
2023/12/08 03:56:00;;;;;;;0.80;0.80;;;-5.30;99.90;;;;;;5109228;28;20218;-72
2023/12/08 03:58:27;;;;;;;1.07;1.07;;;-5.40;99.90;;;;;;5109396;28;20199;-72
2023/12/08 04:00:52;;;;;;;0.90;0.90;;;-5.40;99.90;;;;;;5102401;28;20215;-71
2023/12/08 04:03:18;;;;;;;0.87;0.87;;;-5.30;99.90;;;;;;5106567;28;20263;-72
2023/12/08 04:05:44;;;;;;;0.80;0.80;;;-5.30;99.90;;;;;;5109218;28;20249;-72
2023/12/08 04:08:10;;;;;;;1.00;1.00;;;-5.30;99.90;;;;;;5109660;28;20294;-72
2023/12/08 04:10:35;;;;;;;1.17;1.10;;;-5.30;99.90;;;;;;5109237;28;20275;-72
2023/12/08 04:13:01;;;;;;;0.90;0.90;;;-5.30;99.90;;;;;;5109261;28;20207;-70
2023/12/08 04:15:27;;;;;;;0.90;0.90;;;-5.20;99.90;;;;;;5108500;28;20792;-69
2023/12/08 04:17:52;;;;;;;0.90;0.90;;;-5.20;99.90;;;;;;5109276;28;20225;-68
2023/12/08 04:20:18;;;;;;;1.23;1.17;;;-5.20;99.90;;;;;;5109143;28;20767;-70
2023/12/08 04:22:44;;;;;;;0.80;0.80;;;-5.10;99.90;;;;;;5080051;28;20190;-70
2023/12/08 04:25:12;;;;;;;0.90;0.90;;;-5.10;99.90;;;;;;5109109;28;20226;-70
2023/12/08 04:27:37;;;;;;;0.80;0.80;;;-5.10;99.90;;;;;;5109164;28;20226;-69
2023/12/08 04:30:03;;;;;;;0.90;0.90;;;-5.10;99.90;;;;;;5109165;28;20259;-70
2023/12/08 04:32:29;;;;;;;0.88;0.88;;;-5.10;99.90;;;;;;5090640;28;20575;-69
2023/12/08 04:34:55;;;;;;;1.00;1.00;;;-5.00;99.90;;;;;;5109473;28;20207;-69
2023/12/08 04:37:20;;;;;;;0.80;0.80;;;-5.00;99.90;;;;;;5108732;28;20537;-69
2023/12/08 04:39:46;;;;;;;0.90;0.90;;;-5.00;99.90;;;;;;5109220;28;20207;-69
2023/12/08 04:42:12;;;;;;;0.90;0.90;;;-4.90;99.90;;;;;;5109061;28;20191;-69
2023/12/08 04:44:37;;;;;;;0.90;0.90;;;-4.90;99.90;;;;;;5109165;28;20199;-71
2023/12/08 04:47:03;;;;;;;0.80;0.80;;;-4.90;99.90;;;;;;5108987;28;20218;-69
2023/12/08 04:49:29;;;;;;;0.80;0.80;;;-4.80;99.90;;;;;;5090422;28;20665;-70
2023/12/08 04:51:54;;;;;;;0.80;0.80;;;-4.80;99.90;;;;;;5109049;28;20710;-69
2023/12/08 04:54:20;;;;;;;1.20;1.15;;;-4.80;99.90;;;;;;5108450;28;20312;-71
2023/12/08 04:56:46;;;;;;;0.77;0.77;;;-4.70;99.90;;;;;;5108892;28;20268;-69
2023/12/08 04:59:11;;;;;;;0.73;0.73;;;-4.70;99.90;;;;;;5108844;28;20241;-70
2023/12/08 05:01:37;;;;;;;0.70;0.70;;;-4.70;99.90;;;;;;5109173;28;20212;-68
2023/12/08 05:04:03;;;;;;;0.90;0.90;;;-4.60;99.90;;;;;;5109077;28;20282;-69
2023/12/08 05:06:29;;;;;;;0.88;0.88;;;-4.60;99.90;;;;;;5108634;28;20195;-68
2023/12/08 05:08:55;;;;;;;0.90;0.90;;;-4.60;99.90;;;;;;5108866;28;20207;-69
2023/12/08 05:11:21;;;;;;;0.80;0.80;;;-4.60;99.90;;;;;;5108868;28;20250;-69
2023/12/08 05:13:46;;;;;;;0.90;0.90;;;-4.60;99.90;;;;;;5108775;28;20227;-68
2023/12/08 05:16:12;;;;;;;1.00;1.00;;;-4.60;99.90;;;;;;5090331;28;20751;-70
2023/12/08 05:18:39;;;;;;;0.80;0.80;;;-4.60;99.90;;;;;;5079473;28;20279;-69
2023/12/08 05:21:05;;;;;;;0.90;0.90;;;-4.50;99.90;;;;;;5108508;28;20195;-69
2023/12/08 05:23:30;;;;;;;0.82;0.82;;;-4.50;99.90;;;;;;5090543;28;20597;-70
2023/12/08 05:25:56;;;;;;;0.80;0.80;;;-4.50;99.90;;;;;;5111033;28;20199;-70
2023/12/08 05:28:22;;;;;;;0.80;0.80;;;-4.50;99.90;;;;;;5112371;28;20231;-70
2023/12/08 05:30:47;;;;;;;0.80;0.80;;;-4.50;99.90;;;;;;5112274;28;20290;-69
2023/12/08 05:33:13;;;;;;;0.90;0.90;;;-4.50;99.90;;;;;;5112210;28;20202;-70
2023/12/08 05:35:38;;;;;;;0.90;0.90;;;-4.50;99.90;;;;;;5112050;28;20244;-70
2023/12/08 05:38:04;;;;;;;0.80;0.80;;;-4.50;99.90;;;;;;5093739;28;20203;-69
2023/12/08 05:40:30;;;;;;;0.80;0.80;;;-4.40;99.90;;;;;;5111945;28;20195;-70
2023/12/08 05:42:55;;;;;;;0.82;0.82;;;-4.40;99.90;;;;;;5112198;28;20191;-71
2023/12/08 05:45:21;;;;;;;0.80;0.80;;;-4.40;99.90;;;;;;5111915;28;20198;-72
2023/12/08 05:47:47;;;;;;;0.90;0.90;;;-4.30;99.90;;;;;;5111930;28;20264;-72
2023/12/08 05:50:12;;;;;;;0.85;0.85;;;-4.30;99.90;;;;;;5095715;28;20203;-72
2023/12/08 05:52:38;;;;;;;0.70;0.70;;;-4.30;99.90;;;;;;5091291;28;20283;-72
2023/12/08 05:55:04;;;;;;;0.80;0.80;;;-4.30;99.90;;;;;;5091312;28;20232;-72
2023/12/08 05:57:30;;;;;;;0.80;0.80;;;-4.30;99.90;;;;;;5091284;28;20659;-72
2023/12/08 05:59:55;;;;;;;0.80;0.80;;;-4.20;99.90;;;;;;5091302;28;20203;-72
2023/12/08 06:02:21;;;;;;;0.90;0.90;;;-4.20;99.90;;;;;;5072853;28;20208;-72
2023/12/08 06:04:47;;;;;;;0.82;0.82;;;-4.20;99.90;;;;;;5091592;28;20249;-72
2023/12/08 06:07:13;;;;;;;0.90;0.90;;;-4.20;99.90;;;;;;5093078;28;20208;-72
2023/12/08 06:09:38;;;;;;;0.70;0.70;;;-4.20;99.90;;;;;;5111635;28;20195;-72
2023/12/08 06:12:04;;;;;;;0.80;0.80;;;-4.20;99.90;;;;;;5111783;28;20200;-72
2023/12/08 06:14:30;;;;;;;0.80;0.80;;;-4.20;99.90;;;;;;5111283;28;20203;-72
2023/12/08 06:16:56;;;;;;;0.90;0.90;;;-4.10;99.90;;;;;;5111512;28;20208;-71
2023/12/08 06:19:21;;;;;;;0.80;0.80;;;-4.10;99.90;;;;;;5092859;28;20197;-72
2023/12/08 06:21:47;;;;;;;0.80;0.80;;;-4.10;99.90;;;;;;5111267;28;20652;-71
2023/12/08 06:24:13;;;;;;;0.80;0.80;;;-4.10;99.90;;;;;;5093192;28;20200;-72
2023/12/08 06:26:38;;;;;;;1.05;1.05;;;-4.10;99.90;;;;;;5111338;28;20200;-72
2023/12/08 06:29:04;;;;;;;0.98;0.98;;;-4.10;99.90;;;;;;5092887;28;20200;-72
2023/12/08 06:31:31;;;;;;;1.77;1.15;;;-4.00;99.90;;;;;;5111079;28;20195;-73
2023/12/08 06:33:57;;;;;;;1.48;1.38;;;-4.00;99.90;;;;;;5111118;28;20195;-70
2023/12/08 06:36:23;;;;;;;0.90;0.90;;;-4.00;99.90;;;;;;5110220;28;20200;-69
2023/12/08 06:38:48;;;;;;;0.90;0.90;;;-4.00;99.90;;;;;;5110679;28;20199;-70
2023/12/08 06:41:14;;;;;;;0.90;0.90;;;-4.00;99.90;;;;;;5111446;28;20206;-70
2023/12/08 06:43:40;;;;;;;2.35;1.73;;;-4.00;99.90;;;;;;5111130;28;20207;-71
2023/12/08 06:46:05;;;;;;;0.80;0.80;;;-4.00;99.90;;;;;;5097960;28;20728;-69
2023/12/08 06:48:31;;;;;;;0.80;0.80;;;-4.00;99.90;;;;;;5090269;28;20196;-70
2023/12/08 06:50:57;;;;;;;0.90;0.90;;;-3.90;99.90;;;;;;5090460;28;20275;-70
2023/12/08 06:53:22;;;;;;;1.05;1.05;;;-3.90;99.90;;;;;;5090107;28;20260;-70
2023/12/08 06:55:48;;;;;;;0.93;0.93;;;-3.90;99.90;;;;;;5090420;28;20218;-71
2023/12/08 06:58:13;;;;;;;0.80;0.80;;;-3.90;99.90;;;;;;5090536;28;20249;-69
2023/12/08 07:00:39;;;;;;;0.80;0.80;;;-3.90;99.90;;;;;;5090081;28;20203;-69
2023/12/08 07:03:05;;;;;;;1.00;1.00;;;-3.90;99.90;;;;;;5071864;28;20200;-69
2023/12/08 07:05:31;;;;;;;0.70;0.70;;;-3.80;99.90;;;;;;5108802;28;20243;-69
2023/12/08 07:07:57;;;;;;;0.90;0.90;;;-3.80;99.90;;;;;;5110767;28;20223;-69
2023/12/08 07:10:23;;;;;;;1.00;1.00;;;-3.80;99.90;;;;;;5104072;28;20257;-69
2023/12/08 07:12:49;;;;;;;0.90;0.90;;;-3.80;99.90;;;;;;5106392;28;20294;-70
2023/12/08 07:15:15;;;;;;;1.08;1.08;;;-3.80;99.90;;;;;;5110011;28;20286;-69
2023/12/08 07:17:40;;;;;;;0.80;0.80;;;-3.80;99.90;;;;;;5110138;28;20188;-69
2023/12/08 07:20:09;;;;;;;0.95;0.95;;;-3.80;99.90;;;;;;5110279;28;20240;-69
2023/12/08 07:22:35;;;;;;;1.15;1.05;;;-3.80;99.90;;;;;;5109801;28;20184;-69
2023/12/08 07:25:05;;;;;;;0.80;0.80;;;-3.80;99.90;;;;;;5110048;28;20207;-69
2023/12/08 07:27:32;;;;;;;0.80;0.80;;;-3.70;99.90;;;;;;5110105;28;20196;-69
2023/12/08 07:29:57;;;;;;;1.00;1.00;;;-3.80;99.90;;;;;;5109710;28;20202;-70
2023/12/08 07:32:24;;;;;;;0.70;0.70;;;-3.70;99.90;;;;;;5110014;28;20705;-70
2023/12/08 07:34:50;;;;;;;0.90;0.90;;;-3.70;99.90;;;;;;5109764;28;20568;-69
2023/12/08 07:37:16;;;;;;;1.77;1.55;;;-3.70;99.90;;;;;;5109626;28;20198;-69
2023/12/08 07:39:42;;;;;;;0.85;0.85;;;-3.70;99.90;;;;;;5109585;28;20699;-69
2023/12/08 07:42:07;;;;;;;0.90;0.90;;;-3.70;99.90;;;;;;5098751;28;20196;-72
2023/12/08 07:44:34;;;;;;;0.90;0.90;;;-3.70;99.90;;;;;;5089394;28;20199;-71
2023/12/08 07:47:00;;;;;;;0.80;0.80;;;-3.60;99.90;;;;;;5089548;28;20199;-72
2023/12/08 07:49:26;;;;;;;0.90;0.90;;;-3.60;99.90;;;;;;5088331;28;20192;-72
2023/12/08 07:51:52;;;;;;;0.80;0.80;;;-3.60;99.90;;;;;;5071418;28;20200;-72
2023/12/08 07:54:18;;;;;;;0.82;0.82;;;-3.60;99.90;;;;;;5089044;28;20239;-72
2023/12/08 07:56:43;;;;;;;0.70;0.70;;;-3.50;99.90;;;;;;5089108;28;20206;-72
2023/12/08 07:59:09;;;;;;;0.90;0.90;;;-3.50;99.90;;;;;;5089105;28;20228;-72
2023/12/08 08:01:36;;;;;;;0.80;0.80;;;-3.40;99.90;;;;;;5106557;28;20290;-72
2023/12/08 08:04:01;;;;;;;0.90;0.90;;;-3.40;99.90;;;;;;5110168;28;20664;-70
2023/12/08 08:06:27;;;;;;;0.80;0.80;;;-3.40;99.90;;;;;;5104579;28;20203;-70
2023/12/08 08:08:53;;;;;;;1.35;1.25;;;-3.40;99.90;;;;;;5103808;28;20203;-70
2023/12/08 08:11:19;;;;;;;0.90;0.90;;;-3.40;99.90;;;;;;5125040;27;20221;-70
2023/12/08 08:13:45;;;;;;;0.90;0.90;;;-3.40;99.90;;;;;;5109350;28;20266;-70
2023/12/08 08:16:11;;;;;;;0.80;0.80;;;-3.40;99.90;;;;;;5109396;28;20735;-70
2023/12/08 08:18:36;;;;;;;0.80;0.80;;;-3.30;99.90;;;;;;5109224;28;20271;-70
2023/12/08 08:21:02;;;;;;;0.98;0.98;;;-3.30;99.90;;;;;;5109344;28;20188;-70
2023/12/08 08:23:28;;;;;;;0.70;0.70;;;-3.30;99.90;;;;;;5090972;28;20591;-70
2023/12/08 08:25:53;;;;;;;0.70;0.70;;;-3.30;99.90;;;;;;5108863;28;20274;-70
2023/12/08 08:28:19;;;;;;;1.15;1.15;;;-3.30;99.90;;;;;;5109438;28;20728;-69
2023/12/08 08:30:45;;;;;;;0.90;0.90;;;-3.20;99.90;;;;;;5109054;28;20704;-70
2023/12/08 08:33:11;;;;;;;0.80;0.80;;;-3.20;99.90;;;;;;5109217;28;20218;-70
2023/12/08 08:35:37;;;;;;;0.70;0.70;;;-3.20;99.90;;;;;;5108996;28;20626;-69
2023/12/08 08:38:03;;;;;;;0.80;0.80;;;-3.20;99.90;;;;;;5100478;28;20216;-70
2023/12/08 08:40:31;;;;;;;1.95;1.77;;;-3.20;99.90;;;;;;5088815;28;20188;-70
2023/12/08 08:42:56;;;;;;;0.82;0.82;;;-3.20;99.90;;;;;;5088879;28;20215;-70
2023/12/08 08:45:22;;;;;;;1.48;1.38;;;-3.20;99.90;;;;;;5088819;28;20230;-71
2023/12/08 08:47:48;;;;;;;0.75;0.75;;;-3.10;99.90;;;;;;5088998;28;20191;-70
2023/12/08 08:50:13;;;;;;;1.30;1.20;;;-3.10;99.90;;;;;;5088692;28;20544;-71
2023/12/08 08:52:39;;;;;;;0.90;0.90;;;-3.10;99.90;;;;;;5088779;28;20279;-72
2023/12/08 08:55:05;;;;;;;1.40;1.30;;;-3.00;99.90;;;;;;5088573;28;20224;-72
2023/12/08 08:57:31;;;;;;;0.90;0.90;;;-3.10;99.90;;;;;;5103793;28;20207;-72
2023/12/08 08:59:57;;;;;;;1.80;1.70;;;-3.00;99.90;;;;;;5109767;28;20192;-72
2023/12/08 09:02:22;;;;;;;0.70;0.70;;;-3.00;99.90;;;;;;5112905;28;20231;-72
2023/12/08 09:04:49;;;;;;;0.70;0.70;;;-2.90;99.90;;;;;;5112800;28;20561;-72
2023/12/08 09:07:14;;;;;;;1.02;1.02;;;-2.90;99.90;;;;;;5112995;28;20191;-72
2023/12/08 09:09:40;;;;;;;0.70;0.70;;;-2.90;99.90;;;;;;5112705;28;20655;-72
2023/12/08 09:12:07;;;;;;;0.75;0.75;;;-2.90;99.90;;;;;;5094940;28;20292;-72
2023/12/08 09:14:33;;;;;;;0.95;0.95;;;-2.90;99.90;;;;;;5112750;28;20194;-71
2023/12/08 09:17:05;;;;;;;0.73;0.73;;;-2.80;99.90;;;;;;5112612;28;20282;-72
2023/12/08 09:19:31;;;;;;;0.75;0.75;;;-2.80;99.90;;;;;;5128081;27;20244;-72
2023/12/08 09:21:57;;;;;;;0.98;0.98;;;-2.80;99.90;;;;;;5112300;28;20191;-72
2023/12/08 09:24:25;;;;;;;0.80;0.80;;;-2.70;99.90;;;;;;5112303;28;20198;-72
2023/12/08 09:26:50;;;;;;;0.90;0.90;;;-2.80;99.90;;;;;;5094186;28;20195;-71
2023/12/08 09:29:16;;;;;;;0.70;0.70;;;-2.70;99.90;;;;;;5112521;28;20202;-72
2023/12/08 09:31:42;;;;;;;1.85;1.48;;;-2.70;99.90;;;;;;5112493;28;20245;-73
2023/12/08 09:34:07;;;;;;;0.85;0.85;;;-2.60;99.90;;;;;;5112031;28;20256;-71
2023/12/08 09:36:33;;;;;;;0.70;0.70;;;-2.70;99.90;;;;;;5111836;28;20215;-71
2023/12/08 09:38:59;;;;;;;0.70;0.70;;;-2.60;99.90;;;;;;5112245;28;20187;-72
2023/12/08 09:41:27;;;;;;;1.33;1.23;;;-2.60;99.90;;;;;;5093692;28;20227;-72
2023/12/08 09:44:02;;;;;;;1.05;1.02;;;-2.60;99.90;;;;;;5112495;28;20184;-72
2023/12/08 09:46:30;;;;;;;0.73;0.73;;;-2.60;99.90;;;;;;5093745;28;20195;-72
2023/12/08 09:48:58;;;;;;;0.80;0.80;;;-2.50;99.90;;;;;;5112088;28;20252;-72
2023/12/08 09:51:25;;;;;;;1.52;1.42;;;-2.50;99.90;;;;;;5111965;28;20271;-72
2023/12/08 09:53:51;;;;;;;0.70;0.70;;;-2.50;99.90;;;;;;5111823;28;20228;-72
2023/12/08 09:56:18;;;;;;;0.85;0.85;;;-2.50;99.90;;;;;;5112001;28;20211;-72
2023/12/08 09:58:44;;;;;;;0.80;0.80;;;-2.50;99.90;;;;;;5109266;28;20207;-72
2023/12/08 10:01:16;;;;;;;0.63;0.63;;;-2.40;99.90;;;;;;5104590;28;20200;-72
2023/12/08 10:03:45;;;;;;;0.75;0.75;;;-2.40;99.90;;;;;;5111814;28;20195;-72
2023/12/08 10:06:13;;;;;;;0.90;0.90;;;-2.40;99.90;;;;;;5111582;28;20615;-72
2023/12/08 10:08:39;;;;;;;0.70;0.70;;;-2.40;99.90;;;;;;5111561;28;20199;-72
2023/12/08 10:11:05;;;;;;;1.00;1.00;;;-2.40;99.90;;;;;;5110929;28;20199;-70
2023/12/08 10:13:32;;;;;;;1.23;1.13;;;-2.30;99.90;;;;;;5092641;28;20247;-70
2023/12/08 10:15:58;;;;;;;1.10;1.00;;;-2.30;99.90;;;;;;5111364;28;20214;-70
2023/12/08 10:18:28;;;;;;;0.80;0.80;;;-2.30;99.90;;;;;;5111292;28;20211;-71
2023/12/08 10:21:15;;;;;;;2.15;1.98;;;-2.30;99.90;;;;;;5111396;28;20214;-70
2023/12/08 10:23:45;;;;;;;2.35;1.80;;;-2.30;99.90;;;;;;5093521;28;20287;-71
2023/12/08 10:26:12;;;;;;;2.05;1.73;;;-2.30;99.90;;;;;;5111414;28;20211;-71
2023/12/08 10:28:42;;;;;;;0.70;0.70;;;-2.30;99.90;;;;;;5111251;28;20197;-71
2023/12/08 10:31:09;;;;;;;0.90;0.90;;;-2.30;99.90;;;;;;5098242;28;20196;-70
2023/12/08 10:33:34;;;;;;;2.35;2.15;;;-2.30;99.90;;;;;;5090639;28;20588;-71
2023/12/08 10:36:00;;;;;;;0.80;0.80;;;-2.30;99.90;;;;;;5090831;28;20215;-71
2023/12/08 10:38:26;;;;;;;1.98;1.77;;;-2.20;99.90;;;;;;5088008;28;20829;-71
2023/12/08 10:40:52;;;;;;;2.65;1.45;;;-2.20;99.90;;;;;;5111287;28;20207;-71
2023/12/08 10:43:28;;;;;;;0.80;0.80;;;-2.20;99.90;;;;;;5111319;28;20270;-71
2023/12/08 10:45:54;;;;;;;1.00;1.00;;;-2.20;99.90;;;;;;5111044;28;20203;-71
2023/12/08 10:48:21;;;;;;;2.78;2.08;;;-2.20;99.90;;;;;;5110718;28;20654;-71
2023/12/08 10:50:47;;;;;;;0.80;0.80;;;-2.20;99.90;;;;;;5110900;28;20710;-71
2023/12/08 10:53:15;;;;;;;0.90;0.90;;;-2.20;99.90;;;;;;5110846;28;20638;-71
2023/12/08 10:55:41;;;;;;;0.70;0.70;;;-2.20;99.90;;;;;;5101647;28;20212;-71
2023/12/08 10:58:12;;;;;;;0.70;0.70;;;-2.20;99.90;;;;;;5109219;28;20598;-71
2023/12/08 11:00:39;;;;;;;0.70;0.70;;;-2.20;99.90;;;;;;5110306;28;20217;-71
2023/12/08 11:03:09;;;;;;;0.70;0.70;;;-2.20;99.90;;;;;;5110618;28;20775;-71
2023/12/08 11:05:47;;;;;;;0.85;0.85;;;-2.20;99.90;;;;;;5110215;28;20278;-71
2023/12/08 11:08:16;;;;;;;0.70;0.70;;;-2.20;99.90;;;;;;5110539;28;20681;-71
2023/12/08 11:10:49;;;;;;;0.73;0.73;;;-2.20;99.90;;;;;;5110206;28;20203;-70
2023/12/08 11:13:27;;;;;;;0.80;0.80;;;-2.20;99.90;;;;;;5110577;28;20199;-70
2023/12/08 11:16:14;;;;;;;0.80;0.80;;;-2.20;99.90;;;;;;5091681;28;20302;-70
2023/12/08 11:18:41;;;;;;;0.70;0.70;;;-2.10;99.90;;;;;;5110014;28;20674;-71
2023/12/08 11:21:09;;;;;;;0.80;0.80;;;-2.10;99.90;;;;;;5110289;28;20226;-71
2023/12/08 11:23:37;;;;;;;1.52;1.35;;;-2.10;99.90;;;;;;5109868;28;20191;-70
2023/12/08 11:26:12;;;;;;;0.80;0.80;;;-2.10;99.90;;;;;;5110002;28;20264;-70
2023/12/08 11:28:52;;;;;;;0.80;0.80;;;-2.00;99.90;;;;;;5109911;28;20198;-70
2023/12/08 11:31:24;;;;;;;0.77;0.77;;;-2.00;99.90;;;;;;5109990;28;20270;-70
2023/12/08 11:34:13;;;;;;;0.68;0.68;;;-2.00;99.90;;;;;;5091417;28;20642;-71
2023/12/08 11:36:45;;;;;;;0.70;0.70;;;-2.00;99.90;;;;;;5108870;28;20306;-71
2023/12/08 11:39:42;;;;;;;0.80;0.80;;;-2.00;99.90;;;;;;5110023;28;20184;-72
2023/12/08 11:42:09;;;;;;;0.70;0.70;;;-2.00;99.90;;;;;;5109731;28;20654;-70
2023/12/08 11:44:41;;;;;;;0.70;0.70;;;-2.00;99.90;;;;;;5109416;28;20203;-71
2023/12/08 11:47:07;;;;;;;0.80;0.80;;;-1.90;99.90;;;;;;5089428;28;20200;-71
2023/12/08 11:49:36;;;;;;;1.00;1.00;;;-1.90;99.90;;;;;;5089107;28;20533;-70
2023/12/08 11:52:10;;;;;;;0.75;0.75;;;-1.90;99.90;;;;;;5098710;28;20206;-71
2023/12/08 11:55:09;;;;;;;0.60;0.60;;;-1.90;99.90;;;;;;5088966;28;20223;-71
2023/12/08 11:57:39;;;;;;;0.70;0.70;;;-1.80;99.90;;;;;;5089201;28;20196;-71
2023/12/08 12:00:10;;;;;;;0.60;0.60;;;-1.90;99.90;;;;;;5089368;28;20198;-71
2023/12/08 12:02:40;;;;;;;0.70;0.70;;;-1.80;99.90;;;;;;5089100;28;20195;-72
2023/12/08 12:05:05;;;;;;;0.80;0.80;;;-1.80;99.90;;;;;;5089034;28;20192;-71
2023/12/08 12:07:32;;;;;;;1.02;1.02;;;-1.80;99.90;;;;;;5089664;28;20670;-71
2023/12/08 12:10:02;;;;;;;0.70;0.70;;;-1.80;99.90;;;;;;5089453;28;20231;-71
2023/12/08 12:12:30;;;;;;;0.63;0.63;;;-1.80;99.90;;;;;;5087529;28;20207;-71
2023/12/08 12:14:59;;;;;;;0.70;0.70;;;-1.70;99.90;;;;;;5087543;28;20296;-70
2023/12/08 12:17:25;;;;;;;0.77;0.77;;;-1.70;99.90;;;;;;5089174;28;20534;-70
2023/12/08 12:19:52;;;;;;;1.33;0.98;;;-1.70;99.90;;;;;;5088907;28;20195;-70
2023/12/08 12:22:18;;;;;;;0.60;0.60;;;-1.70;99.90;;;;;;5088824;28;20231;-71
2023/12/08 12:24:45;;;;;;;0.88;0.88;;;-1.70;99.90;;;;;;5088978;28;20225;-70
2023/12/08 12:27:10;;;;;;;0.70;0.70;;;-1.70;99.90;;;;;;5088810;28;20246;-71
2023/12/08 12:29:36;;;;;;;0.80;0.80;;;-1.70;99.90;;;;;;5088513;28;20196;-70
2023/12/08 12:32:05;;;;;;;0.70;0.70;;;-1.70;99.90;;;;;;5088757;28;20581;-71
2023/12/08 12:34:31;;;;;;;1.20;1.15;;;-1.70;99.90;;;;;;5088903;28;20207;-67
2023/12/08 12:36:57;;;;;;;0.73;0.73;;;-1.60;99.90;;;;;;5095865;28;20226;-68
2023/12/08 12:39:25;;;;;;;0.70;0.70;;;-1.60;99.90;;;;;;5113094;28;20274;-69
2023/12/08 12:41:58;;;;;;;0.63;0.63;;;-1.60;99.90;;;;;;5113037;28;20629;-68
2023/12/08 12:44:36;;;;;;;2.10;1.85;;;-1.50;99.90;;;;;;5113197;28;20199;-69
2023/12/08 12:47:02;;;;;;;3.10;1.75;;;-1.50;99.90;;;;;;5113136;28;20226;-68
2023/12/08 12:49:28;;;;;;;0.68;0.68;;;-1.50;99.90;;;;;;5102195;28;20641;-70
2023/12/08 12:51:53;;;;;;;0.80;0.80;;;-1.50;99.90;;;;;;5113309;28;20251;-69
2023/12/08 12:54:34;;;;;;;0.80;0.80;;;-1.50;99.90;;;;;;5112777;28;20690;-69